sensor_id;sensor_type;location;lat;lon;timestamp;P1;durP1;ratioP1;P2;durP2;ratioP2
8466;SDS011;4270;48.148;11.648;2022-07-04T00:01:50;3.60;;;2.50;;
8466;SDS011;4270;48.148;11.648;2022-07-04T00:04:15;8.00;;;3.50;;
8466;SDS011;4270;48.148;11.648;2022-07-04T00:06:40;5.50;;;4.00;;
8466;SDS011;4270;48.148;11.648;2022-07-04T00:09:06;4.00;;;3.07;;
8466;SDS011;4270;48.148;11.648;2022-07-04T00:11:31;4.93;;;3.23;;
8466;SDS011;4270;48.148;11.648;2022-07-04T00:13:56;4.93;;;3.30;;
8466;SDS011;4270;48.148;11.648;2022-07-04T00:16:21;4.77;;;2.97;;
8466;SDS011;4270;48.148;11.648;2022-07-04T00:18:46;4.00;;;2.67;;
8466;SDS011;4270;48.148;11.648;2022-07-04T00:21:11;3.97;;;3.30;;
8466;SDS011;4270;48.148;11.648;2022-07-04T00:23:37;3.83;;;2.50;;
8466;SDS011;4270;48.148;11.648;2022-07-04T00:26:02;3.77;;;2.73;;
8466;SDS011;4270;48.148;11.648;2022-07-04T00:28:27;3.00;;;2.70;;
8466;SDS011;4270;48.148;11.648;2022-07-04T00:30:52;3.67;;;3.00;;
8466;SDS011;4270;48.148;11.648;2022-07-04T00:33:17;4.07;;;2.90;;
8466;SDS011;4270;48.148;11.648;2022-07-04T00:35:43;4.00;;;2.80;;
8466;SDS011;4270;48.148;11.648;2022-07-04T00:38:08;2.87;;;2.67;;
8466;SDS011;4270;48.148;11.648;2022-07-04T00:40:33;3.03;;;2.80;;
8466;SDS011;4270;48.148;11.648;2022-07-04T00:43:02;3.67;;;3.03;;
8466;SDS011;4270;48.148;11.648;2022-07-04T00:45:27;3.30;;;2.97;;
8466;SDS011;4270;48.148;11.648;2022-07-04T00:47:52;4.53;;;3.50;;
8466;SDS011;4270;48.148;11.648;2022-07-04T00:50:18;2.90;;;2.50;;
8466;SDS011;4270;48.148;11.648;2022-07-04T00:52:43;3.43;;;2.60;;
8466;SDS011;4270;48.148;11.648;2022-07-04T00:55:08;3.30;;;3.00;;
8466;SDS011;4270;48.148;11.648;2022-07-04T00:57:34;5.03;;;3.07;;
8466;SDS011;4270;48.148;11.648;2022-07-04T00:59:59;4.13;;;3.23;;
8466;SDS011;4270;48.148;11.648;2022-07-04T01:02:24;4.57;;;3.30;;
8466;SDS011;4270;48.148;11.648;2022-07-04T01:04:49;3.80;;;3.10;;
8466;SDS011;4270;48.148;11.648;2022-07-04T01:07:15;3.10;;;2.90;;
8466;SDS011;4270;48.148;11.648;2022-07-04T01:09:40;6.17;;;3.07;;
8466;SDS011;4270;48.148;11.648;2022-07-04T01:12:06;3.90;;;3.00;;
8466;SDS011;4270;48.148;11.648;2022-07-04T01:14:31;4.00;;;3.17;;
8466;SDS011;4270;48.148;11.648;2022-07-04T01:16:56;2.70;;;2.50;;
8466;SDS011;4270;48.148;11.648;2022-07-04T01:19:22;3.00;;;2.80;;
8466;SDS011;4270;48.148;11.648;2022-07-04T01:21:47;2.30;;;2.10;;
8466;SDS011;4270;48.148;11.648;2022-07-04T01:24:12;3.00;;;2.70;;
8466;SDS011;4270;48.148;11.648;2022-07-04T01:26:37;2.77;;;2.57;;
8466;SDS011;4270;48.148;11.648;2022-07-04T01:29:03;2.87;;;2.57;;
8466;SDS011;4270;48.148;11.648;2022-07-04T01:31:28;5.13;;;2.03;;
8466;SDS011;4270;48.148;11.648;2022-07-04T01:33:53;2.40;;;2.20;;
8466;SDS011;4270;48.148;11.648;2022-07-04T01:36:18;2.93;;;2.73;;
8466;SDS011;4270;48.148;11.648;2022-07-04T01:38:44;3.53;;;2.43;;
8466;SDS011;4270;48.148;11.648;2022-07-04T01:41:09;3.43;;;2.53;;
8466;SDS011;4270;48.148;11.648;2022-07-04T01:43:34;2.50;;;2.30;;
8466;SDS011;4270;48.148;11.648;2022-07-04T01:46:00;2.53;;;2.33;;
8466;SDS011;4270;48.148;11.648;2022-07-04T01:48:25;4.50;;;3.20;;
8466;SDS011;4270;48.148;11.648;2022-07-04T01:50:50;3.00;;;2.60;;
8466;SDS011;4270;48.148;11.648;2022-07-04T01:53:15;4.43;;;2.80;;
8466;SDS011;4270;48.148;11.648;2022-07-04T01:55:41;3.83;;;3.03;;
8466;SDS011;4270;48.148;11.648;2022-07-04T01:58:06;3.37;;;2.90;;
8466;SDS011;4270;48.148;11.648;2022-07-04T02:00:31;3.83;;;2.93;;
8466;SDS011;4270;48.148;11.648;2022-07-04T02:03:15;5.33;;;3.13;;
8466;SDS011;4270;48.148;11.648;2022-07-04T02:05:42;5.60;;;2.53;;
8466;SDS011;4270;48.148;11.648;2022-07-04T02:08:07;4.63;;;3.03;;
8466;SDS011;4270;48.148;11.648;2022-07-04T02:10:33;4.00;;;3.10;;
8466;SDS011;4270;48.148;11.648;2022-07-04T02:12:59;4.17;;;3.03;;
8466;SDS011;4270;48.148;11.648;2022-07-04T02:15:48;3.73;;;3.30;;
8466;SDS011;4270;48.148;11.648;2022-07-04T02:18:12;4.07;;;3.43;;
8466;SDS011;4270;48.148;11.648;2022-07-04T02:20:38;3.57;;;3.27;;
8466;SDS011;4270;48.148;11.648;2022-07-04T02:23:03;4.23;;;3.07;;
8466;SDS011;4270;48.148;11.648;2022-07-04T02:25:29;4.00;;;3.10;;
8466;SDS011;4270;48.148;11.648;2022-07-04T02:27:54;5.60;;;3.40;;
8466;SDS011;4270;48.148;11.648;2022-07-04T02:30:20;3.63;;;3.23;;
8466;SDS011;4270;48.148;11.648;2022-07-04T02:32:45;5.00;;;2.80;;
8466;SDS011;4270;48.148;11.648;2022-07-04T02:35:10;4.00;;;3.00;;
8466;SDS011;4270;48.148;11.648;2022-07-04T02:37:36;2.80;;;2.60;;
8466;SDS011;4270;48.148;11.648;2022-07-04T02:40:02;4.53;;;2.70;;
8466;SDS011;4270;48.148;11.648;2022-07-04T02:42:31;3.70;;;3.00;;
8466;SDS011;4270;48.148;11.648;2022-07-04T02:44:57;2.97;;;2.77;;
8466;SDS011;4270;48.148;11.648;2022-07-04T02:47:22;3.13;;;2.53;;
8466;SDS011;4270;48.148;11.648;2022-07-04T02:49:47;4.13;;;3.13;;
8466;SDS011;4270;48.148;11.648;2022-07-04T02:52:12;5.20;;;2.93;;
8466;SDS011;4270;48.148;11.648;2022-07-04T02:54:38;5.10;;;2.90;;
8466;SDS011;4270;48.148;11.648;2022-07-04T02:57:03;3.27;;;3.03;;
8466;SDS011;4270;48.148;11.648;2022-07-04T02:59:28;2.57;;;2.37;;
8466;SDS011;4270;48.148;11.648;2022-07-04T03:01:53;2.53;;;2.33;;
8466;SDS011;4270;48.148;11.648;2022-07-04T03:04:19;2.87;;;2.67;;
8466;SDS011;4270;48.148;11.648;2022-07-04T03:06:44;4.53;;;3.30;;
8466;SDS011;4270;48.148;11.648;2022-07-04T03:09:09;3.30;;;3.00;;
8466;SDS011;4270;48.148;11.648;2022-07-04T03:11:34;3.30;;;3.10;;
8466;SDS011;4270;48.148;11.648;2022-07-04T03:14:00;3.13;;;2.83;;
8466;SDS011;4270;48.148;11.648;2022-07-04T03:16:25;3.83;;;2.90;;
8466;SDS011;4270;48.148;11.648;2022-07-04T03:18:50;3.67;;;2.63;;
8466;SDS011;4270;48.148;11.648;2022-07-04T03:21:15;3.07;;;2.77;;
8466;SDS011;4270;48.148;11.648;2022-07-04T03:23:40;2.80;;;2.60;;
8466;SDS011;4270;48.148;11.648;2022-07-04T03:26:05;3.90;;;2.50;;
8466;SDS011;4270;48.148;11.648;2022-07-04T03:28:31;2.97;;;2.70;;
8466;SDS011;4270;48.148;11.648;2022-07-04T03:30:56;3.80;;;3.00;;
8466;SDS011;4270;48.148;11.648;2022-07-04T03:33:21;3.40;;;3.10;;
8466;SDS011;4270;48.148;11.648;2022-07-04T03:35:46;3.33;;;3.03;;
8466;SDS011;4270;48.148;11.648;2022-07-04T03:38:11;3.40;;;3.10;;
8466;SDS011;4270;48.148;11.648;2022-07-04T03:40:37;4.23;;;3.60;;
8466;SDS011;4270;48.148;11.648;2022-07-04T03:43:03;5.60;;;3.23;;
8466;SDS011;4270;48.148;11.648;2022-07-04T03:45:29;5.13;;;3.20;;
8466;SDS011;4270;48.148;11.648;2022-07-04T03:47:54;2.80;;;2.60;;
8466;SDS011;4270;48.148;11.648;2022-07-04T03:50:19;3.33;;;3.03;;
8466;SDS011;4270;48.148;11.648;2022-07-04T03:52:45;4.10;;;3.23;;
8466;SDS011;4270;48.148;11.648;2022-07-04T03:55:10;5.00;;;3.30;;
8466;SDS011;4270;48.148;11.648;2022-07-04T03:57:35;2.90;;;2.60;;
8466;SDS011;4270;48.148;11.648;2022-07-04T04:00:01;4.20;;;2.73;;
8466;SDS011;4270;48.148;11.648;2022-07-04T04:02:26;3.50;;;3.20;;
8466;SDS011;4270;48.148;11.648;2022-07-04T04:04:51;5.17;;;3.23;;
8466;SDS011;4270;48.148;11.648;2022-07-04T04:07:35;3.20;;;3.00;;
8466;SDS011;4270;48.148;11.648;2022-07-04T04:10:00;3.30;;;3.00;;
8466;SDS011;4270;48.148;11.648;2022-07-04T04:12:25;4.47;;;3.30;;
8466;SDS011;4270;48.148;11.648;2022-07-04T04:14:51;3.80;;;3.50;;
8466;SDS011;4270;48.148;11.648;2022-07-04T04:17:16;3.10;;;2.90;;
8466;SDS011;4270;48.148;11.648;2022-07-04T04:19:41;3.30;;;2.87;;
8466;SDS011;4270;48.148;11.648;2022-07-04T04:22:06;4.50;;;3.00;;
8466;SDS011;4270;48.148;11.648;2022-07-04T04:24:31;3.30;;;2.90;;
8466;SDS011;4270;48.148;11.648;2022-07-04T04:26:56;4.33;;;2.80;;
8466;SDS011;4270;48.148;11.648;2022-07-04T04:29:22;3.10;;;2.90;;
8466;SDS011;4270;48.148;11.648;2022-07-04T04:31:47;2.97;;;2.77;;
8466;SDS011;4270;48.148;11.648;2022-07-04T04:34:12;3.50;;;3.20;;
8466;SDS011;4270;48.148;11.648;2022-07-04T04:36:37;2.90;;;2.70;;
8466;SDS011;4270;48.148;11.648;2022-07-04T04:39:03;3.07;;;2.87;;
8466;SDS011;4270;48.148;11.648;2022-07-04T04:41:28;5.50;;;2.77;;
8466;SDS011;4270;48.148;11.648;2022-07-04T04:43:53;2.60;;;2.37;;
8466;SDS011;4270;48.148;11.648;2022-07-04T04:46:19;2.50;;;2.30;;
8466;SDS011;4270;48.148;11.648;2022-07-04T04:48:44;1.97;;;1.70;;
8466;SDS011;4270;48.148;11.648;2022-07-04T04:51:09;3.43;;;2.70;;
8466;SDS011;4270;48.148;11.648;2022-07-04T04:53:35;2.50;;;2.30;;
8466;SDS011;4270;48.148;11.648;2022-07-04T04:56:00;2.90;;;2.30;;
8466;SDS011;4270;48.148;11.648;2022-07-04T04:58:25;3.17;;;2.57;;
8466;SDS011;4270;48.148;11.648;2022-07-04T05:00:51;4.30;;;2.57;;
8466;SDS011;4270;48.148;11.648;2022-07-04T05:03:16;4.10;;;2.63;;
8466;SDS011;4270;48.148;11.648;2022-07-04T05:05:42;3.70;;;3.00;;
8466;SDS011;4270;48.148;11.648;2022-07-04T05:08:07;2.83;;;2.63;;
8466;SDS011;4270;48.148;11.648;2022-07-04T05:10:32;2.63;;;2.40;;
8466;SDS011;4270;48.148;11.648;2022-07-04T05:12:58;3.10;;;2.30;;
8466;SDS011;4270;48.148;11.648;2022-07-04T05:15:23;2.80;;;2.60;;
8466;SDS011;4270;48.148;11.648;2022-07-04T05:17:48;4.03;;;2.60;;
8466;SDS011;4270;48.148;11.648;2022-07-04T05:20:13;4.37;;;2.60;;
8466;SDS011;4270;48.148;11.648;2022-07-04T05:22:39;3.03;;;2.60;;
8466;SDS011;4270;48.148;11.648;2022-07-04T05:25:04;3.57;;;3.00;;
8466;SDS011;4270;48.148;11.648;2022-07-04T05:27:29;2.83;;;2.63;;
8466;SDS011;4270;48.148;11.648;2022-07-04T05:29:56;3.27;;;2.50;;
8466;SDS011;4270;48.148;11.648;2022-07-04T05:32:21;3.17;;;2.63;;
8466;SDS011;4270;48.148;11.648;2022-07-04T05:34:46;3.20;;;2.83;;
8466;SDS011;4270;48.148;11.648;2022-07-04T05:37:11;3.87;;;2.87;;
8466;SDS011;4270;48.148;11.648;2022-07-04T05:39:36;3.90;;;3.10;;
8466;SDS011;4270;48.148;11.648;2022-07-04T05:42:02;4.20;;;2.40;;
8466;SDS011;4270;48.148;11.648;2022-07-04T05:44:27;5.63;;;3.20;;
8466;SDS011;4270;48.148;11.648;2022-07-04T05:46:53;2.83;;;2.50;;
8466;SDS011;4270;48.148;11.648;2022-07-04T05:49:18;4.33;;;2.80;;
8466;SDS011;4270;48.148;11.648;2022-07-04T05:51:43;3.00;;;2.60;;
8466;SDS011;4270;48.148;11.648;2022-07-04T05:54:09;4.63;;;2.90;;
8466;SDS011;4270;48.148;11.648;2022-07-04T05:56:34;3.50;;;2.33;;
8466;SDS011;4270;48.148;11.648;2022-07-04T05:58:59;5.93;;;2.67;;
8466;SDS011;4270;48.148;11.648;2022-07-04T06:01:24;2.80;;;2.50;;
8466;SDS011;4270;48.148;11.648;2022-07-04T06:03:49;2.90;;;2.60;;
8466;SDS011;4270;48.148;11.648;2022-07-04T06:06:15;3.83;;;2.70;;
8466;SDS011;4270;48.148;11.648;2022-07-04T06:08:41;4.13;;;3.00;;
8466;SDS011;4270;48.148;11.648;2022-07-04T06:11:07;3.67;;;3.00;;
8466;SDS011;4270;48.148;11.648;2022-07-04T06:13:32;5.10;;;2.90;;
8466;SDS011;4270;48.148;11.648;2022-07-04T06:15:57;2.53;;;2.30;;
8466;SDS011;4270;48.148;11.648;2022-07-04T06:18:22;4.13;;;2.70;;
8466;SDS011;4270;48.148;11.648;2022-07-04T06:20:48;6.90;;;2.50;;
8466;SDS011;4270;48.148;11.648;2022-07-04T06:23:14;5.33;;;2.80;;
8466;SDS011;4270;48.148;11.648;2022-07-04T06:25:39;2.73;;;1.97;;
8466;SDS011;4270;48.148;11.648;2022-07-04T06:28:04;3.00;;;2.50;;
8466;SDS011;4270;48.148;11.648;2022-07-04T06:30:29;2.43;;;2.20;;
8466;SDS011;4270;48.148;11.648;2022-07-04T06:32:55;2.03;;;1.90;;
8466;SDS011;4270;48.148;11.648;2022-07-04T06:35:25;2.57;;;2.37;;
8466;SDS011;4270;48.148;11.648;2022-07-04T06:38:09;4.30;;;2.03;;
8466;SDS011;4270;48.148;11.648;2022-07-04T06:40:35;3.03;;;1.97;;
8466;SDS011;4270;48.148;11.648;2022-07-04T06:43:00;4.63;;;2.60;;
8466;SDS011;4270;48.148;11.648;2022-07-04T06:45:26;3.00;;;2.60;;
8466;SDS011;4270;48.148;11.648;2022-07-04T06:47:51;2.70;;;2.40;;
8466;SDS011;4270;48.148;11.648;2022-07-04T06:50:16;2.50;;;1.90;;
8466;SDS011;4270;48.148;11.648;2022-07-04T06:52:42;7.70;;;2.70;;
8466;SDS011;4270;48.148;11.648;2022-07-04T06:55:08;2.47;;;2.27;;
8466;SDS011;4270;48.148;11.648;2022-07-04T06:57:33;2.13;;;1.93;;
8466;SDS011;4270;48.148;11.648;2022-07-04T06:59:59;2.83;;;2.50;;
8466;SDS011;4270;48.148;11.648;2022-07-04T07:02:24;2.80;;;2.40;;
8466;SDS011;4270;48.148;11.648;2022-07-04T07:04:50;5.47;;;2.33;;
8466;SDS011;4270;48.148;11.648;2022-07-04T07:07:15;3.80;;;2.70;;
8466;SDS011;4270;48.148;11.648;2022-07-04T07:09:40;2.83;;;2.53;;
8466;SDS011;4270;48.148;11.648;2022-07-04T07:12:05;2.33;;;2.13;;
8466;SDS011;4270;48.148;11.648;2022-07-04T07:14:30;2.57;;;2.37;;
8466;SDS011;4270;48.148;11.648;2022-07-04T07:16:56;2.30;;;2.10;;
8466;SDS011;4270;48.148;11.648;2022-07-04T07:19:21;2.83;;;2.50;;
8466;SDS011;4270;48.148;11.648;2022-07-04T07:21:46;2.80;;;2.00;;
8466;SDS011;4270;48.148;11.648;2022-07-04T07:24:11;2.63;;;2.10;;
8466;SDS011;4270;48.148;11.648;2022-07-04T07:26:36;4.93;;;2.47;;
8466;SDS011;4270;48.148;11.648;2022-07-04T07:29:02;3.40;;;2.40;;
8466;SDS011;4270;48.148;11.648;2022-07-04T07:31:27;2.67;;;2.40;;
8466;SDS011;4270;48.148;11.648;2022-07-04T07:33:52;3.07;;;2.20;;
8466;SDS011;4270;48.148;11.648;2022-07-04T07:36:17;3.90;;;2.37;;
8466;SDS011;4270;48.148;11.648;2022-07-04T07:38:42;2.57;;;2.37;;
8466;SDS011;4270;48.148;11.648;2022-07-04T07:41:08;2.60;;;2.40;;
8466;SDS011;4270;48.148;11.648;2022-07-04T07:43:34;3.00;;;2.80;;
8466;SDS011;4270;48.148;11.648;2022-07-04T07:45:59;2.93;;;2.50;;
8466;SDS011;4270;48.148;11.648;2022-07-04T07:48:24;2.83;;;2.50;;
8466;SDS011;4270;48.148;11.648;2022-07-04T07:50:49;3.17;;;2.87;;
8466;SDS011;4270;48.148;11.648;2022-07-04T07:53:15;2.63;;;2.43;;
8466;SDS011;4270;48.148;11.648;2022-07-04T07:55:41;3.00;;;2.80;;
8466;SDS011;4270;48.148;11.648;2022-07-04T07:58:06;4.10;;;2.77;;
8466;SDS011;4270;48.148;11.648;2022-07-04T08:00:32;2.73;;;2.27;;
8466;SDS011;4270;48.148;11.648;2022-07-04T08:02:57;3.00;;;2.53;;
8466;SDS011;4270;48.148;11.648;2022-07-04T08:05:40;3.37;;;2.70;;
8466;SDS011;4270;48.148;11.648;2022-07-04T08:08:06;3.77;;;2.40;;
8466;SDS011;4270;48.148;11.648;2022-07-04T08:10:32;2.80;;;2.27;;
8466;SDS011;4270;48.148;11.648;2022-07-04T08:12:57;3.63;;;2.33;;
8466;SDS011;4270;48.148;11.648;2022-07-04T08:15:23;4.43;;;2.33;;
8466;SDS011;4270;48.148;11.648;2022-07-04T08:17:49;4.20;;;2.53;;
8466;SDS011;4270;48.148;11.648;2022-07-04T08:20:14;3.43;;;2.67;;
8466;SDS011;4270;48.148;11.648;2022-07-04T08:22:39;3.10;;;2.40;;
8466;SDS011;4270;48.148;11.648;2022-07-04T08:25:04;2.00;;;1.80;;
8466;SDS011;4270;48.148;11.648;2022-07-04T08:27:30;3.00;;;1.90;;
8466;SDS011;4270;48.148;11.648;2022-07-04T08:29:55;2.07;;;1.87;;
8466;SDS011;4270;48.148;11.648;2022-07-04T08:32:20;3.70;;;2.50;;
8466;SDS011;4270;48.148;11.648;2022-07-04T08:34:45;3.60;;;2.27;;
8466;SDS011;4270;48.148;11.648;2022-07-04T08:37:11;2.30;;;2.00;;
8466;SDS011;4270;48.148;11.648;2022-07-04T08:39:37;5.90;;;2.80;;
8466;SDS011;4270;48.148;11.648;2022-07-04T08:42:03;3.23;;;2.03;;
8466;SDS011;4270;48.148;11.648;2022-07-04T08:44:30;3.20;;;2.17;;
8466;SDS011;4270;48.148;11.648;2022-07-04T08:46:55;2.10;;;1.90;;
8466;SDS011;4270;48.148;11.648;2022-07-04T08:49:21;3.40;;;2.30;;
8466;SDS011;4270;48.148;11.648;2022-07-04T08:51:51;3.60;;;2.43;;
8466;SDS011;4270;48.148;11.648;2022-07-04T08:54:17;5.63;;;2.37;;
8466;SDS011;4270;48.148;11.648;2022-07-04T08:57:02;1.70;;;1.60;;
8466;SDS011;4270;48.148;11.648;2022-07-04T08:59:46;3.20;;;1.80;;
8466;SDS011;4270;48.148;11.648;2022-07-04T09:02:15;2.10;;;1.90;;
8466;SDS011;4270;48.148;11.648;2022-07-04T09:04:42;2.77;;;1.70;;
8466;SDS011;4270;48.148;11.648;2022-07-04T09:07:07;2.73;;;1.80;;
8466;SDS011;4270;48.148;11.648;2022-07-04T09:09:33;6.27;;;1.80;;
8466;SDS011;4270;48.148;11.648;2022-07-04T09:11:58;3.03;;;2.30;;
8466;SDS011;4270;48.148;11.648;2022-07-04T09:14:23;2.60;;;2.10;;
8466;SDS011;4270;48.148;11.648;2022-07-04T09:16:48;3.43;;;2.20;;
8466;SDS011;4270;48.148;11.648;2022-07-04T09:19:20;2.80;;;2.07;;
8466;SDS011;4270;48.148;11.648;2022-07-04T09:21:46;4.03;;;2.20;;
8466;SDS011;4270;48.148;11.648;2022-07-04T09:24:11;2.13;;;1.90;;
8466;SDS011;4270;48.148;11.648;2022-07-04T09:26:39;2.33;;;2.13;;
8466;SDS011;4270;48.148;11.648;2022-07-04T09:29:05;3.33;;;2.17;;
8466;SDS011;4270;48.148;11.648;2022-07-04T09:31:30;2.03;;;1.93;;
8466;SDS011;4270;48.148;11.648;2022-07-04T09:33:59;1.50;;;1.40;;
8466;SDS011;4270;48.148;11.648;2022-07-04T09:36:26;2.17;;;1.97;;
8466;SDS011;4270;48.148;11.648;2022-07-04T09:39:08;3.00;;;1.77;;
8466;SDS011;4270;48.148;11.648;2022-07-04T09:41:53;4.20;;;1.80;;
8466;SDS011;4270;48.148;11.648;2022-07-04T09:44:19;3.60;;;1.97;;
8466;SDS011;4270;48.148;11.648;2022-07-04T09:46:45;2.00;;;1.67;;
8466;SDS011;4270;48.148;11.648;2022-07-04T09:49:10;2.60;;;2.10;;
8466;SDS011;4270;48.148;11.648;2022-07-04T09:56:42;2.70;;;2.03;;
8466;SDS011;4270;48.148;11.648;2022-07-04T09:59:07;2.70;;;1.80;;
8466;SDS011;4270;48.148;11.648;2022-07-04T10:01:33;4.03;;;2.00;;
8466;SDS011;4270;48.148;11.648;2022-07-04T10:03:58;4.77;;;2.17;;
8466;SDS011;4270;48.148;11.648;2022-07-04T10:06:24;2.20;;;1.80;;
8466;SDS011;4270;48.148;11.648;2022-07-04T10:08:49;2.83;;;1.60;;
8466;SDS011;4270;48.148;11.648;2022-07-04T10:11:15;3.10;;;1.87;;
8466;SDS011;4270;48.148;11.648;2022-07-04T10:13:40;2.90;;;2.03;;
8466;SDS011;4270;48.148;11.648;2022-07-04T10:16:05;3.23;;;2.07;;
8466;SDS011;4270;48.148;11.648;2022-07-04T10:18:33;1.97;;;1.87;;
8466;SDS011;4270;48.148;11.648;2022-07-04T10:20:59;1.90;;;1.70;;
8466;SDS011;4270;48.148;11.648;2022-07-04T10:23:25;1.70;;;1.40;;
8466;SDS011;4270;48.148;11.648;2022-07-04T10:25:56;1.70;;;1.60;;
8466;SDS011;4270;48.148;11.648;2022-07-04T10:28:21;2.30;;;1.63;;
8466;SDS011;4270;48.148;11.648;2022-07-04T10:30:50;2.00;;;1.67;;
8466;SDS011;4270;48.148;11.648;2022-07-04T10:33:16;1.97;;;1.80;;
8466;SDS011;4270;48.148;11.648;2022-07-04T10:35:52;5.03;;;2.10;;
8466;SDS011;4270;48.148;11.648;2022-07-04T10:40:50;1.97;;;1.77;;
8466;SDS011;4270;48.148;11.648;2022-07-04T10:45:51;1.80;;;1.70;;
8466;SDS011;4270;48.148;11.648;2022-07-04T10:48:20;1.60;;;1.50;;
8466;SDS011;4270;48.148;11.648;2022-07-04T10:50:58;1.93;;;1.80;;
8466;SDS011;4270;48.148;11.648;2022-07-04T10:53:23;6.00;;;2.03;;
8466;SDS011;4270;48.148;11.648;2022-07-04T10:55:48;2.30;;;1.67;;
8466;SDS011;4270;48.148;11.648;2022-07-04T10:58:27;3.47;;;2.20;;
8466;SDS011;4270;48.148;11.648;2022-07-04T11:01:12;2.23;;;1.60;;
8466;SDS011;4270;48.148;11.648;2022-07-04T11:03:47;2.23;;;1.63;;
8466;SDS011;4270;48.148;11.648;2022-07-04T11:09:17;2.47;;;1.87;;
8466;SDS011;4270;48.148;11.648;2022-07-04T11:14:29;1.60;;;1.50;;
8466;SDS011;4270;48.148;11.648;2022-07-04T11:16:55;1.90;;;1.50;;
8466;SDS011;4270;48.148;11.648;2022-07-04T11:19:20;2.67;;;1.60;;
8466;SDS011;4270;48.148;11.648;2022-07-04T11:21:46;1.67;;;1.57;;
8466;SDS011;4270;48.148;11.648;2022-07-04T11:24:11;3.73;;;1.53;;
8466;SDS011;4270;48.148;11.648;2022-07-04T11:26:37;1.80;;;1.70;;
8466;SDS011;4270;48.148;11.648;2022-07-04T11:29:02;2.67;;;2.00;;
8466;SDS011;4270;48.148;11.648;2022-07-04T11:31:34;2.93;;;1.50;;
8466;SDS011;4270;48.148;11.648;2022-07-04T11:34:00;1.83;;;1.50;;
8466;SDS011;4270;48.148;11.648;2022-07-04T11:36:25;2.90;;;1.93;;
8466;SDS011;4270;48.148;11.648;2022-07-04T11:38:52;1.80;;;1.70;;
8466;SDS011;4270;48.148;11.648;2022-07-04T11:41:18;1.70;;;1.60;;
8466;SDS011;4270;48.148;11.648;2022-07-04T11:44:03;3.33;;;1.80;;
8466;SDS011;4270;48.148;11.648;2022-07-04T11:46:47;1.93;;;1.83;;
8466;SDS011;4270;48.148;11.648;2022-07-04T11:49:13;2.20;;;2.00;;
8466;SDS011;4270;48.148;11.648;2022-07-04T11:51:42;4.13;;;1.67;;
8466;SDS011;4270;48.148;11.648;2022-07-04T11:54:08;2.40;;;1.87;;
8466;SDS011;4270;48.148;11.648;2022-07-04T11:56:33;3.10;;;2.07;;
8466;SDS011;4270;48.148;11.648;2022-07-04T11:58:58;8.30;;;2.50;;
8466;SDS011;4270;48.148;11.648;2022-07-04T12:01:33;2.17;;;1.93;;
8466;SDS011;4270;48.148;11.648;2022-07-04T12:04:10;3.53;;;1.87;;
8466;SDS011;4270;48.148;11.648;2022-07-04T12:06:35;2.70;;;1.53;;
8466;SDS011;4270;48.148;11.648;2022-07-04T12:09:00;2.60;;;1.70;;
8466;SDS011;4270;48.148;11.648;2022-07-04T12:14:13;1.90;;;1.80;;
8466;SDS011;4270;48.148;11.648;2022-07-04T12:16:38;1.90;;;1.70;;
8466;SDS011;4270;48.148;11.648;2022-07-04T12:19:09;4.93;;;1.40;;
8466;SDS011;4270;48.148;11.648;2022-07-04T12:21:35;2.80;;;1.93;;
8466;SDS011;4270;48.148;11.648;2022-07-04T12:24:00;2.57;;;1.60;;
8466;SDS011;4270;48.148;11.648;2022-07-04T12:26:28;1.60;;;1.50;;
8466;SDS011;4270;48.148;11.648;2022-07-04T12:28:54;2.27;;;1.90;;
8466;SDS011;4270;48.148;11.648;2022-07-04T12:31:19;2.33;;;1.70;;
8466;SDS011;4270;48.148;11.648;2022-07-04T12:33:53;3.20;;;1.80;;
8466;SDS011;4270;48.148;11.648;2022-07-04T12:36:19;2.83;;;1.57;;
8466;SDS011;4270;48.148;11.648;2022-07-04T12:38:44;2.23;;;1.60;;
8466;SDS011;4270;48.148;11.648;2022-07-04T12:41:13;2.97;;;1.97;;
8466;SDS011;4270;48.148;11.648;2022-07-04T12:46:07;1.90;;;1.73;;
8466;SDS011;4270;48.148;11.648;2022-07-04T12:48:33;1.97;;;1.70;;
8466;SDS011;4270;48.148;11.648;2022-07-04T12:51:14;2.97;;;1.70;;
8466;SDS011;4270;48.148;11.648;2022-07-04T12:53:40;2.13;;;1.93;;
8466;SDS011;4270;48.148;11.648;2022-07-04T12:56:06;3.57;;;1.80;;
8466;SDS011;4270;48.148;11.648;2022-07-04T12:58:31;2.57;;;2.07;;
8466;SDS011;4270;48.148;11.648;2022-07-04T13:00:57;3.30;;;2.20;;
8466;SDS011;4270;48.148;11.648;2022-07-04T13:03:22;2.03;;;1.90;;
8466;SDS011;4270;48.148;11.648;2022-07-04T13:05:48;3.10;;;2.00;;
8466;SDS011;4270;48.148;11.648;2022-07-04T13:08:13;2.83;;;2.23;;
8466;SDS011;4270;48.148;11.648;2022-07-04T13:10:38;3.07;;;2.23;;
8466;SDS011;4270;48.148;11.648;2022-07-04T13:13:04;2.20;;;2.00;;
8466;SDS011;4270;48.148;11.648;2022-07-04T13:15:29;2.00;;;1.80;;
8466;SDS011;4270;48.148;11.648;2022-07-04T13:17:54;4.10;;;2.20;;
8466;SDS011;4270;48.148;11.648;2022-07-04T13:20:19;1.97;;;1.77;;
8466;SDS011;4270;48.148;11.648;2022-07-04T13:22:45;1.87;;;1.77;;
8466;SDS011;4270;48.148;11.648;2022-07-04T13:25:10;2.37;;;1.73;;
8466;SDS011;4270;48.148;11.648;2022-07-04T13:27:35;3.67;;;2.60;;
8466;SDS011;4270;48.148;11.648;2022-07-04T13:30:00;3.53;;;3.03;;
8466;SDS011;4270;48.148;11.648;2022-07-04T13:32:26;2.70;;;1.90;;
8466;SDS011;4270;48.148;11.648;2022-07-04T13:34:51;2.30;;;2.10;;
8466;SDS011;4270;48.148;11.648;2022-07-04T13:37:16;1.90;;;1.80;;
8466;SDS011;4270;48.148;11.648;2022-07-04T13:39:42;2.23;;;2.03;;
8466;SDS011;4270;48.148;11.648;2022-07-04T13:42:07;2.50;;;1.73;;
8466;SDS011;4270;48.148;11.648;2022-07-04T13:44:33;1.73;;;1.63;;
8466;SDS011;4270;48.148;11.648;2022-07-04T13:46:59;2.90;;;1.70;;
8466;SDS011;4270;48.148;11.648;2022-07-04T13:49:24;3.10;;;1.80;;
8466;SDS011;4270;48.148;11.648;2022-07-04T13:51:50;2.10;;;1.90;;
8466;SDS011;4270;48.148;11.648;2022-07-04T13:54:15;2.03;;;1.83;;
8466;SDS011;4270;48.148;11.648;2022-07-04T13:56:41;4.17;;;1.90;;
8466;SDS011;4270;48.148;11.648;2022-07-04T13:59:07;5.03;;;2.20;;
8466;SDS011;4270;48.148;11.648;2022-07-04T14:01:32;2.40;;;2.17;;
8466;SDS011;4270;48.148;11.648;2022-07-04T14:03:58;2.87;;;2.57;;
8466;SDS011;4270;48.148;11.648;2022-07-04T14:06:24;4.03;;;2.10;;
8466;SDS011;4270;48.148;11.648;2022-07-04T14:08:49;4.10;;;2.30;;
8466;SDS011;4270;48.148;11.648;2022-07-04T14:11:14;2.50;;;2.00;;
8466;SDS011;4270;48.148;11.648;2022-07-04T14:13:39;5.10;;;2.37;;
8466;SDS011;4270;48.148;11.648;2022-07-04T14:16:05;2.90;;;2.20;;
8466;SDS011;4270;48.148;11.648;2022-07-04T14:18:31;3.00;;;1.93;;
8466;SDS011;4270;48.148;11.648;2022-07-04T14:20:56;3.50;;;2.03;;
8466;SDS011;4270;48.148;11.648;2022-07-04T14:23:21;2.40;;;1.80;;
8466;SDS011;4270;48.148;11.648;2022-07-04T14:26:05;2.93;;;2.20;;
8466;SDS011;4270;48.148;11.648;2022-07-04T14:28:30;3.23;;;2.33;;
8466;SDS011;4270;48.148;11.648;2022-07-04T14:30:56;3.00;;;2.27;;
8466;SDS011;4270;48.148;11.648;2022-07-04T14:33:21;2.33;;;1.90;;
8466;SDS011;4270;48.148;11.648;2022-07-04T14:35:47;2.00;;;1.80;;
8466;SDS011;4270;48.148;11.648;2022-07-04T14:38:12;2.27;;;2.07;;
8466;SDS011;4270;48.148;11.648;2022-07-04T14:40:37;3.90;;;2.13;;
8466;SDS011;4270;48.148;11.648;2022-07-04T14:43:04;2.60;;;2.40;;
8466;SDS011;4270;48.148;11.648;2022-07-04T14:45:29;2.23;;;2.03;;
8466;SDS011;4270;48.148;11.648;2022-07-04T14:47:55;2.30;;;2.10;;
8466;SDS011;4270;48.148;11.648;2022-07-04T14:50:20;4.70;;;2.40;;
8466;SDS011;4270;48.148;11.648;2022-07-04T14:52:45;2.80;;;1.73;;
8466;SDS011;4270;48.148;11.648;2022-07-04T14:55:10;5.20;;;2.07;;
8466;SDS011;4270;48.148;11.648;2022-07-04T14:57:35;2.50;;;1.90;;
8466;SDS011;4270;48.148;11.648;2022-07-04T15:00:01;2.43;;;2.20;;
8466;SDS011;4270;48.148;11.648;2022-07-04T15:02:26;2.33;;;2.13;;
8466;SDS011;4270;48.148;11.648;2022-07-04T15:04:52;3.37;;;1.90;;
8466;SDS011;4270;48.148;11.648;2022-07-04T15:07:17;3.20;;;1.93;;
8466;SDS011;4270;48.148;11.648;2022-07-04T15:09:42;2.77;;;1.83;;
8466;SDS011;4270;48.148;11.648;2022-07-04T15:12:07;3.20;;;1.93;;
8466;SDS011;4270;48.148;11.648;2022-07-04T15:14:33;3.43;;;3.13;;
8466;SDS011;4270;48.148;11.648;2022-07-04T15:16:58;2.70;;;2.27;;